createdAt,value
2022-07-25T00:03:43.918Z,98925.46
2022-07-25T00:08:46.397Z,98919.11
2022-07-25T00:13:52.025Z,98916.62
2022-07-25T00:19:20.066Z,98922.68
2022-07-25T00:24:22.461Z,98922.04
2022-07-25T00:29:24.892Z,98916.52
2022-07-25T00:34:40.146Z,98904.16
2022-07-25T00:39:42.371Z,98902.85
2022-07-25T00:44:44.767Z,98902.65
2022-07-25T00:49:47.128Z,98905.29
2022-07-25T00:54:49.624Z,98901.55
2022-07-25T00:59:55.912Z,98902.36
2022-07-25T01:04:58.954Z,98901.13
2022-07-25T01:10:02.120Z,98899.11
2022-07-25T01:15:05.037Z,98894.34
2022-07-25T01:20:17.674Z,98888.38
2022-07-25T01:25:21.929Z,98884.83
2022-07-25T01:30:25.457Z,98881.80
2022-07-25T01:35:27.872Z,98880.63
2022-07-25T01:40:30.146Z,98883.27
2022-07-25T01:45:35.604Z,98881.11
2022-07-25T01:50:41.050Z,98873.88
2022-07-25T01:55:46.018Z,98869.56
2022-07-25T02:01:03.938Z,98870.88
2022-07-25T02:06:29.064Z,98864.52
2022-07-25T02:12:00.660Z,98865.02
2022-07-25T02:18:08.052Z,98866.75
2022-07-25T02:23:35.532Z,98866.44
2022-07-25T02:29:40.994Z,98871.17
2022-07-25T02:35:15.659Z,98875.33
2022-07-25T02:40:25.607Z,98877.39
2022-07-25T02:45:28.237Z,98874.15
2022-07-25T02:50:36.669Z,98876.25
2022-07-25T02:56:02.497Z,98877.14
2022-07-25T03:01:05.106Z,98873.52
2022-07-25T03:06:19.638Z,98872.75
2022-07-25T03:11:27.344Z,98873.95
2022-07-25T03:16:32.922Z,98870.71
2022-07-25T03:21:58.446Z,98862.88
2022-07-25T03:27:04.253Z,98855.09
2022-07-25T03:32:28.004Z,98855.47
2022-07-25T03:37:50.661Z,98851.31
2022-07-25T03:43:18.123Z,98848.85
2022-07-25T03:48:28.270Z,98844.38
2022-07-25T03:54:24.009Z,98848.86
2022-07-25T04:00:11.533Z,98847.58
2022-07-25T04:05:14.031Z,98856.27
2022-07-25T04:10:26.933Z,98859.01
2022-07-25T04:15:39.391Z,98856.04
2022-07-25T04:21:02.673Z,98857.33
2022-07-25T04:26:33.813Z,98859.14
2022-07-25T04:32:00.239Z,98857.27
2022-07-25T04:37:23.118Z,98859.17
2022-07-25T04:43:05.348Z,98856.66
2022-07-25T04:48:12.747Z,98850.49
2022-07-25T04:53:26.029Z,98854.77
2022-07-25T04:58:50.506Z,98851.73
2022-07-25T05:03:53.337Z,98844.05
2022-07-25T05:09:07.170Z,98839.65
2022-07-25T05:14:28.284Z,98839.02
2022-07-25T05:20:00.124Z,98837.52
2022-07-25T05:25:31.276Z,98839.31
2022-07-25T05:30:40.167Z,98832.30
2022-07-25T05:36:05.579Z,98828.00
2022-07-25T05:41:15.037Z,98823.39
2022-07-25T05:46:40.108Z,98814.35
2022-07-25T05:51:55.920Z,98810.00
2022-07-25T05:56:58.613Z,98802.59
2022-07-25T06:02:02.592Z,98814.16
2022-07-25T06:07:21.667Z,98817.15
2022-07-25T06:12:24.519Z,98810.64
2022-07-25T06:17:32.236Z,98809.09
2022-07-25T06:22:34.842Z,98805.13
2022-07-25T06:27:47.473Z,98802.27
2022-07-25T06:33:01.740Z,98799.70
2022-07-25T06:38:09.801Z,98790.09
2022-07-25T06:43:15.226Z,98789.23
2022-07-25T06:48:28.596Z,98783.96
2022-07-25T06:53:39.570Z,98779.23
2022-07-25T06:58:41.966Z,98781.84
2022-07-25T07:03:44.541Z,98782.75
2022-07-25T07:08:48.621Z,98776.11
2022-07-25T07:13:51.474Z,98772.84
2022-07-25T07:18:53.588Z,98768.10
2022-07-25T07:23:59.974Z,98756.81
2022-07-25T07:29:05.620Z,98749.30
2022-07-25T07:34:17.400Z,98755.32
2022-07-25T07:39:19.747Z,98753.98
2022-07-25T07:44:32.948Z,98755.89
2022-07-25T07:49:37.315Z,98756.27
2022-07-25T07:54:59.502Z,98755.77
2022-07-25T08:00:02.187Z,98749.13
2022-07-25T08:05:22.181Z,98749.20
2022-07-25T08:10:35.154Z,98744.41
2022-07-25T08:16:01.194Z,98741.14
2022-07-25T08:21:18.725Z,98741.61
2022-07-25T08:26:31.524Z,98741.36
2022-07-25T08:31:34.435Z,98736.95
2022-07-25T08:36:37.173Z,98730.93
2022-07-25T08:41:44.974Z,98727.77
2022-07-25T08:47:11.949Z,98726.83
2022-07-25T08:52:15.994Z,98720.70
2022-07-25T08:57:18.333Z,98719.20
2022-07-25T09:02:21.173Z,98714.52
2022-07-25T09:07:43.828Z,98710.36
2022-07-25T09:12:57.546Z,98704.15
2022-07-25T09:18:06.291Z,98702.51
2022-07-25T09:23:36.238Z,98695.03
2022-07-25T09:28:55.800Z,98697.13
2022-07-25T09:34:01.979Z,98693.84
2022-07-25T09:39:06.835Z,98690.38
2022-07-25T09:44:30.311Z,98685.48
2022-07-25T09:49:52.548Z,98683.64
2022-07-25T09:54:55.156Z,98675.91
2022-07-25T10:00:00.471Z,98671.27
2022-07-25T10:05:15.807Z,98668.30
2022-07-25T10:10:28.655Z,98665.34
2022-07-25T10:15:50.591Z,98659.23
2022-07-25T10:20:56.257Z,98661.79
2022-07-25T10:26:01.310Z,98657.46
2022-07-25T10:31:03.747Z,98651.33
2022-07-25T10:36:15.615Z,98651.73
2022-07-25T10:41:17.907Z,98648.16
2022-07-25T10:46:28.188Z,98643.35
2022-07-25T10:51:41.346Z,98633.23
2022-07-25T10:56:57.348Z,98624.82
2022-07-25T11:02:00.647Z,98618.02
2022-07-25T11:07:14.749Z,98612.37
2022-07-25T11:12:20.226Z,98597.98
2022-07-25T11:17:27.788Z,98592.61
2022-07-25T11:22:32.233Z,98584.00
2022-07-25T11:27:34.463Z,98580.34
2022-07-25T11:32:57.801Z,98579.96
2022-07-25T11:38:15.130Z,98571.28
2022-07-25T11:43:21.670Z,98561.65
2022-07-25T11:48:34.550Z,98549.29
2022-07-25T11:53:55.167Z,98542.70
2022-07-25T11:59:01.968Z,98539.11
2022-07-25T12:04:18.644Z,98532.04
2022-07-25T12:09:22.310Z,98522.81
2022-07-25T12:14:24.432Z,98509.66
2022-07-25T12:19:26.622Z,98504.23
2022-07-25T12:24:28.672Z,98493.77
2022-07-25T12:29:30.881Z,98487.19
2022-07-25T12:34:33.261Z,98480.88
2022-07-25T12:39:35.762Z,98482.17
2022-07-25T12:44:37.844Z,98475.70
2022-07-25T12:49:40.353Z,98473.55
2022-07-25T12:54:58.034Z,98470.58
2022-07-25T13:00:00.404Z,98460.84
2022-07-25T13:05:03.916Z,98457.40
2022-07-25T13:10:07.128Z,98450.15
2022-07-25T13:15:09.866Z,98444.48
2022-07-25T13:20:12.442Z,98438.73
2022-07-25T13:25:14.954Z,98428.96
2022-07-25T13:30:20.149Z,98424.10
2022-07-25T13:35:31.526Z,98419.95
2022-07-25T13:40:42.342Z,98419.17
2022-07-25T13:45:57.609Z,98404.95
2022-07-25T13:51:00.088Z,98399.71
2022-07-25T13:56:02.494Z,98387.33
2022-07-25T14:01:20.268Z,98378.71
2022-07-25T14:06:29.447Z,98371.02
2022-07-25T14:11:31.854Z,98371.06
2022-07-25T14:16:44.912Z,98363.98
2022-07-25T14:21:50.977Z,98361.45
2022-07-25T14:26:55.197Z,98360.39
2022-07-25T14:31:57.926Z,98355.60
2022-07-25T14:37:00.763Z,98345.04
2022-07-25T14:42:13.945Z,98334.64
2022-07-25T14:47:41.751Z,98328.50
2022-07-25T14:52:57.936Z,98324.52
2022-07-25T14:58:02.723Z,98315.24
2022-07-25T15:03:04.818Z,98307.46
2022-07-25T15:08:07.175Z,98299.89
2022-07-25T15:13:30.356Z,98292.02
2022-07-25T15:18:42.545Z,98287.79
2022-07-25T15:23:57.564Z,98277.77
2022-07-25T15:29:00.546Z,98271.27
2022-07-25T15:34:06.115Z,98265.30
2022-07-25T15:39:09.442Z,98260.55
2022-07-25T15:44:11.939Z,98259.80
2022-07-25T15:49:15.671Z,98254.77
2022-07-25T15:54:17.942Z,98249.08
2022-07-25T15:59:20.140Z,98244.00
2022-07-25T16:04:22.788Z,98241.57
2022-07-25T16:09:25.787Z,98236.18
2022-07-25T16:14:28.006Z,98234.70
2022-07-25T16:19:30.435Z,98223.81
2022-07-25T16:24:32.930Z,98225.62
2022-07-25T16:29:35.227Z,98221.27
2022-07-25T16:34:37.421Z,98219.52
2022-07-25T16:39:40.452Z,98216.88
2022-07-25T16:44:42.598Z,98212.77
2022-07-25T16:49:45.085Z,98205.52
2022-07-25T16:54:47.927Z,98200.55
2022-07-25T17:00:01.068Z,98200.20
2022-07-25T17:05:03.890Z,98191.63
2022-07-25T17:10:07.179Z,98190.75
2022-07-25T17:15:10.397Z,98188.41
2022-07-25T17:20:16.215Z,98182.98
2022-07-25T17:25:18.727Z,98180.97
2022-07-25T17:30:21.380Z,98176.23
2022-07-25T17:35:26.569Z,98171.72
2022-07-25T17:40:29.124Z,98172.11
2022-07-25T17:45:31.331Z,98168.08
2022-07-25T17:50:34.024Z,98167.80
2022-07-25T17:55:39.029Z,98167.14
2022-07-25T18:00:42.190Z,98158.35
2022-07-25T18:05:44.415Z,98157.90
2022-07-25T18:10:46.745Z,98156.11
2022-07-25T18:15:50.474Z,98157.59
2022-07-25T18:20:53.028Z,98144.70
2022-07-25T18:25:55.780Z,98138.56
2022-07-25T18:31:05.962Z,98136.27
2022-07-25T18:36:09.244Z,98136.80
2022-07-25T18:41:28.785Z,98129.21
2022-07-25T18:46:33.149Z,98123.84
2022-07-25T18:51:35.818Z,98118.08
2022-07-25T18:56:38.527Z,98114.09
2022-07-25T19:01:40.744Z,98118.13
2022-07-25T19:06:43.445Z,98122.34
2022-07-25T19:11:48.062Z,98117.91
2022-07-25T19:16:50.453Z,98121.20
2022-07-25T19:21:52.784Z,98117.81
2022-07-25T19:26:59.135Z,98115.08
2022-07-25T19:32:01.232Z,98115.15
2022-07-25T19:37:04.229Z,98112.08
2022-07-25T19:42:08.879Z,98118.50
2022-07-25T19:47:11.957Z,98120.15
2022-07-25T19:52:14.804Z,98118.48
2022-07-25T19:57:19.617Z,98110.77
2022-07-25T20:02:36.617Z,98109.61
2022-07-25T20:07:50.027Z,98113.45
2022-07-25T20:12:52.215Z,98118.34
2022-07-25T20:18:01.057Z,98118.31
2022-07-25T20:23:04.168Z,98119.52
2022-07-25T20:28:08.916Z,98119.26
2022-07-25T20:33:14.159Z,98116.39
2022-07-25T20:38:18.727Z,98112.89
2022-07-25T20:43:24.699Z,98109.92
2022-07-25T20:49:04.138Z,98105.09
2022-07-25T20:54:15.986Z,98103.70
2022-07-25T20:59:24.075Z,98101.67
2022-07-25T21:04:26.733Z,98101.90
2022-07-25T21:09:32.745Z,98102.91
2022-07-25T21:14:48.580Z,98102.56
2022-07-25T21:20:16.877Z,98108.25
2022-07-25T21:25:25.994Z,98115.20
2022-07-25T21:30:28.696Z,98101.22
2022-07-25T21:35:53.188Z,98098.32
2022-07-25T21:40:59.583Z,98098.30
2022-07-25T21:46:05.128Z,98095.71
2022-07-25T21:51:10.491Z,98088.45
2022-07-25T21:56:36.073Z,98083.98
2022-07-25T22:01:56.332Z,98077.80
2022-07-25T22:06:59.377Z,98076.52
2022-07-25T22:12:12.009Z,98062.07
2022-07-25T22:17:49.270Z,98054.06
2022-07-25T22:22:52.588Z,98049.05
2022-07-25T22:27:55.490Z,98043.87
2022-07-25T22:33:17.239Z,98039.01
2022-07-25T22:38:44.390Z,98030.63
2022-07-25T22:44:14.310Z,98026.81
2022-07-25T22:49:25.186Z,98027.25
2022-07-25T22:54:30.561Z,98016.54
2022-07-25T22:59:32.963Z,98007.02
2022-07-25T23:04:55.612Z,98005.51
2022-07-25T23:10:04.254Z,98002.76
2022-07-25T23:15:20.976Z,98003.05
2022-07-25T23:20:57.136Z,98006.84
2022-07-25T23:26:02.710Z,98003.24
2022-07-25T23:31:05.263Z,97996.23
2022-07-25T23:36:19.501Z,98001.06
2022-07-25T23:41:22.686Z,97998.55
2022-07-25T23:46:27.914Z,98001.02
2022-07-25T23:51:32.797Z,97994.21
2022-07-25T23:56:35.399Z,97988.13
